KUIN/UIN METAR and TAF weather

Enter ICAO airport designator
Station Type Date Time Source
KUIN METAR 2020/07/04 01:54 UTC NOAA

KUIN 040154Z AUTO 04004KT 10SM OVC065 26/22 A3001 RMK AO2 SLP153 T02610217


Station Type Date Time Source
KUIN Decoded METAR 2020/07/04 01:54 UTC NOAA

QUINCY MUNI. BALDWIN FIELD, IL, United States (KUIN) 39-56N 091-12W
Jul 03, 2020 - 09:54 PM EDT / 2020.07.04 0154 UTC
Wind: from the NE (040 degrees) at 5 MPH (4 KT):0
Visibility: 10 mile(s):0
Sky conditions: overcast
Temperature: 79.0 F (26.1 C)
Dew Point: 71.1 F (21.7 C)
Relative Humidity: 76%
Pressure (altimeter): 30.01 in. Hg (1016 hPa)
ob: KUIN 040154Z AUTO 04004KT 10SM OVC065 26/22 A3001 RMK AO2 SLP153 T02610217
cycle: 2

Station Type Date Time Source
KUIN TAF 2020/07/03 18:40 UTC NOAA

TAF KUIN 031738Z 0318/0418 08008KT P6SM VCSH BKN050
FM040200 VRB04KT P6SM SCT060
FM041500 VRB04KT P6SM SCT030

Example: see airport list